sensor_id;sensor_type;location;lat;lon;timestamp;P1;durP1;ratioP1;P2;durP2;ratioP2
52342;SDS011;38277;51.972;4.624;2023-01-19T00:09:04;3.2;;;1.3;;
52342;SDS011;38277;51.972;4.624;2023-01-19T00:22:24;9.8;;;2.3;;
52342;SDS011;38277;51.972;4.624;2023-01-19T00:26:58;4.3;;;1.4;;
52342;SDS011;38277;51.972;4.624;2023-01-19T00:31:36;2.2;;;1.0;;
52342;SDS011;38277;51.972;4.624;2023-01-19T00:35:56;2.5;;;0.9;;
52342;SDS011;38277;51.972;4.624;2023-01-19T00:40:38;3.4;;;0.9;;
52342;SDS011;38277;51.972;4.624;2023-01-19T00:46:22;3.2;;;1.3;;
52342;SDS011;38277;51.972;4.624;2023-01-19T00:50:11;3.7;;;1.4;;
52342;SDS011;38277;51.972;4.624;2023-01-19T00:54:55;8.4;;;2.4;;
52342;SDS011;38277;51.972;4.624;2023-01-19T00:58:58;5.1;;;1.4;;
52342;SDS011;38277;51.972;4.624;2023-01-19T01:12:12;11.2;;;1.8;;
52342;SDS011;38277;51.972;4.624;2023-01-19T01:18:11;7.5;;;2.0;;
52342;SDS011;38277;51.972;4.624;2023-01-19T01:40:37;6.3;;;1.7;;
52342;SDS011;38277;51.972;4.624;2023-01-19T01:43:49;5.3;;;1.1;;
52342;SDS011;38277;51.972;4.624;2023-01-19T01:48:02;6.1;;;1.3;;
52342;SDS011;38277;51.972;4.624;2023-01-19T01:52:41;2.9;;;1.0;;
52342;SDS011;38277;51.972;4.624;2023-01-19T01:57:53;2.8;;;1.3;;
52342;SDS011;38277;51.972;4.624;2023-01-19T02:01:40;1.9;;;1.1;;
52342;SDS011;38277;51.972;4.624;2023-01-19T02:06:22;2.3;;;1.0;;
52342;SDS011;38277;51.972;4.624;2023-01-19T02:16:37;5.0;;;1.3;;
52342;SDS011;38277;51.972;4.624;2023-01-19T02:21:11;6.0;;;1.3;;
52342;SDS011;38277;51.972;4.624;2023-01-19T02:24:14;6.7;;;1.8;;
52342;SDS011;38277;51.972;4.624;2023-01-19T02:28:49;8.7;;;2.3;;
52342;SDS011;38277;51.972;4.624;2023-01-19T02:33:53;5.2;;;1.6;;
52342;SDS011;38277;51.972;4.624;2023-01-19T02:39:18;2.3;;;1.3;;
52342;SDS011;38277;51.972;4.624;2023-01-19T02:42:17;2.0;;;0.8;;
52342;SDS011;38277;51.972;4.624;2023-01-19T02:46:34;4.0;;;0.9;;
52342;SDS011;38277;51.972;4.624;2023-01-19T02:51:20;2.7;;;0.8;;
52342;SDS011;38277;51.972;4.624;2023-01-19T02:55:43;6.1;;;1.5;;
52342;SDS011;38277;51.972;4.624;2023-01-19T03:05:09;2.4;;;0.9;;
52342;SDS011;38277;51.972;4.624;2023-01-19T03:10:00;2.1;;;0.8;;
52342;SDS011;38277;51.972;4.624;2023-01-19T03:13:51;2.5;;;1.0;;
52342;SDS011;38277;51.972;4.624;2023-01-19T03:18:45;4.5;;;1.8;;
52342;SDS011;38277;51.972;4.624;2023-01-19T03:31:31;3.0;;;1.2;;
52342;SDS011;38277;51.972;4.624;2023-01-19T03:36:04;6.6;;;1.3;;
52342;SDS011;38277;51.972;4.624;2023-01-19T03:40:40;5.2;;;1.3;;
52342;SDS011;38277;51.972;4.624;2023-01-19T03:45:43;5.8;;;1.6;;
52342;SDS011;38277;51.972;4.624;2023-01-19T03:49:52;7.8;;;1.6;;
52342;SDS011;38277;51.972;4.624;2023-01-19T03:53:56;4.8;;;1.3;;
52342;SDS011;38277;51.972;4.624;2023-01-19T03:58:27;7.7;;;2.1;;
52342;SDS011;38277;51.972;4.624;2023-01-19T04:02:59;5.7;;;1.8;;
52342;SDS011;38277;51.972;4.624;2023-01-19T04:07:47;5.3;;;1.6;;
52342;SDS011;38277;51.972;4.624;2023-01-19T04:11:56;12.7;;;2.2;;
52342;SDS011;38277;51.972;4.624;2023-01-19T04:16:36;10.3;;;1.9;;
52342;SDS011;38277;51.972;4.624;2023-01-19T04:21:46;10.7;;;2.3;;
52342;SDS011;38277;51.972;4.624;2023-01-19T04:25:45;10.8;;;2.5;;
52342;SDS011;38277;51.972;4.624;2023-01-19T04:29:57;14.8;;;2.5;;
52342;SDS011;38277;51.972;4.624;2023-01-19T04:34:32;14.3;;;3.3;;
52342;SDS011;38277;51.972;4.624;2023-01-19T04:39:53;15.3;;;3.8;;
52342;SDS011;38277;51.972;4.624;2023-01-19T04:43:49;11.7;;;3.0;;
52342;SDS011;38277;51.972;4.624;2023-01-19T04:48:40;19.6;;;3.8;;
52342;SDS011;38277;51.972;4.624;2023-01-19T04:52:46;13.5;;;2.9;;
52342;SDS011;38277;51.972;4.624;2023-01-19T04:58:05;16.6;;;3.8;;
52342;SDS011;38277;51.972;4.624;2023-01-19T05:01:51;14.4;;;3.2;;
52342;SDS011;38277;51.972;4.624;2023-01-19T05:06:09;17.8;;;4.5;;
52342;SDS011;38277;51.972;4.624;2023-01-19T05:10:53;17.5;;;3.7;;
52342;SDS011;38277;51.972;4.624;2023-01-19T05:15:18;19.0;;;3.2;;
52342;SDS011;38277;51.972;4.624;2023-01-19T05:19:42;17.6;;;2.9;;
52342;SDS011;38277;51.972;4.624;2023-01-19T05:23:55;14.8;;;2.8;;
52342;SDS011;38277;51.972;4.624;2023-01-19T05:28:34;11.2;;;3.2;;
52342;SDS011;38277;51.972;4.624;2023-01-19T05:33:06;13.8;;;2.9;;
52342;SDS011;38277;51.972;4.624;2023-01-19T05:37:25;18.1;;;3.9;;
52342;SDS011;38277;51.972;4.624;2023-01-19T05:42:13;14.0;;;3.7;;
52342;SDS011;38277;51.972;4.624;2023-01-19T05:50:57;15.8;;;3.3;;
52342;SDS011;38277;51.972;4.624;2023-01-19T05:55:48;11.3;;;2.5;;
52342;SDS011;38277;51.972;4.624;2023-01-19T06:00:19;13.5;;;3.9;;
52342;SDS011;38277;51.972;4.624;2023-01-19T06:04:35;7.6;;;2.3;;
52342;SDS011;38277;51.972;4.624;2023-01-19T06:09:04;8.9;;;2.5;;
52342;SDS011;38277;51.972;4.624;2023-01-19T06:13:50;10.0;;;4.7;;
52342;SDS011;38277;51.972;4.624;2023-01-19T06:17:59;10.4;;;2.2;;
52342;SDS011;38277;51.972;4.624;2023-01-19T06:22:46;11.9;;;3.3;;
52342;SDS011;38277;51.972;4.624;2023-01-19T06:27:19;12.9;;;2.9;;
52342;SDS011;38277;51.972;4.624;2023-01-19T06:31:39;17.9;;;4.6;;
52342;SDS011;38277;51.972;4.624;2023-01-19T06:35:58;15.5;;;3.8;;
52342;SDS011;38277;51.972;4.624;2023-01-19T06:40:50;23.3;;;5.4;;
52342;SDS011;38277;51.972;4.624;2023-01-19T06:45:14;18.4;;;4.1;;
52342;SDS011;38277;51.972;4.624;2023-01-19T06:49:35;9.0;;;2.8;;
52342;SDS011;38277;51.972;4.624;2023-01-19T06:54:42;8.7;;;2.7;;
52342;SDS011;38277;51.972;4.624;2023-01-19T06:58:50;10.0;;;3.1;;
52342;SDS011;38277;51.972;4.624;2023-01-19T07:02:55;10.5;;;2.7;;
52342;SDS011;38277;51.972;4.624;2023-01-19T07:07:49;14.9;;;3.3;;
52342;SDS011;38277;51.972;4.624;2023-01-19T07:12:00;12.6;;;2.8;;
52342;SDS011;38277;51.972;4.624;2023-01-19T07:21:22;16.7;;;3.7;;
52342;SDS011;38277;51.972;4.624;2023-01-19T07:25:49;10.5;;;2.5;;
52342;SDS011;38277;51.972;4.624;2023-01-19T07:30:09;9.8;;;2.8;;
52342;SDS011;38277;51.972;4.624;2023-01-19T07:39:11;5.4;;;2.3;;
52342;SDS011;38277;51.972;4.624;2023-01-19T07:43:48;12.6;;;2.8;;
52342;SDS011;38277;51.972;4.624;2023-01-19T07:48:01;9.7;;;3.0;;
52342;SDS011;38277;51.972;4.624;2023-01-19T07:52:48;11.9;;;4.0;;
52342;SDS011;38277;51.972;4.624;2023-01-19T07:57:50;15.5;;;5.1;;
52342;SDS011;38277;51.972;4.624;2023-01-19T08:01:44;16.9;;;5.8;;
52342;SDS011;38277;51.972;4.624;2023-01-19T08:05:56;14.2;;;3.8;;
52342;SDS011;38277;51.972;4.624;2023-01-19T08:10:31;17.8;;;3.8;;
52342;SDS011;38277;51.972;4.624;2023-01-19T08:15:55;13.9;;;4.8;;
52342;SDS011;38277;51.972;4.624;2023-01-19T08:19:32;11.0;;;3.1;;
52342;SDS011;38277;51.972;4.624;2023-01-19T08:24:02;12.1;;;2.5;;
52342;SDS011;38277;51.972;4.624;2023-01-19T08:28:43;12.7;;;2.8;;
52342;SDS011;38277;51.972;4.624;2023-01-19T08:33:47;17.1;;;3.5;;
52342;SDS011;38277;51.972;4.624;2023-01-19T08:37:26;11.0;;;2.5;;
52342;SDS011;38277;51.972;4.624;2023-01-19T08:42:11;11.1;;;3.3;;
52342;SDS011;38277;51.972;4.624;2023-01-19T08:46:46;8.9;;;2.6;;
52342;SDS011;38277;51.972;4.624;2023-01-19T08:51:06;8.8;;;2.0;;
52342;SDS011;38277;51.972;4.624;2023-01-19T08:55:36;9.2;;;2.2;;
52342;SDS011;38277;51.972;4.624;2023-01-19T09:00:18;15.3;;;3.1;;
52342;SDS011;38277;51.972;4.624;2023-01-19T09:04:41;17.2;;;4.4;;
52342;SDS011;38277;51.972;4.624;2023-01-19T09:10:08;12.5;;;2.9;;
52342;SDS011;38277;51.972;4.624;2023-01-19T09:13:43;12.7;;;2.5;;
52342;SDS011;38277;51.972;4.624;2023-01-19T09:18:15;14.3;;;3.6;;
52342;SDS011;38277;51.972;4.624;2023-01-19T09:22:47;17.4;;;3.7;;
52342;SDS011;38277;51.972;4.624;2023-01-19T09:35:59;11.3;;;3.0;;
52342;SDS011;38277;51.972;4.624;2023-01-19T09:40:29;12.2;;;2.9;;
52342;SDS011;38277;51.972;4.624;2023-01-19T09:54:32;14.1;;;3.4;;
52342;SDS011;38277;51.972;4.624;2023-01-19T09:58:42;8.4;;;2.5;;
52342;SDS011;38277;51.972;4.624;2023-01-19T10:07:39;7.8;;;2.0;;
52342;SDS011;38277;51.972;4.624;2023-01-19T10:12:06;9.9;;;2.5;;
52342;SDS011;38277;51.972;4.624;2023-01-19T10:17:15;11.2;;;2.6;;
52342;SDS011;38277;51.972;4.624;2023-01-19T10:21:18;4.3;;;1.4;;
52342;SDS011;38277;51.972;4.624;2023-01-19T10:25:35;11.3;;;2.0;;
52342;SDS011;38277;51.972;4.624;2023-01-19T10:30:17;6.1;;;1.7;;
52342;SDS011;38277;51.972;4.624;2023-01-19T10:34:43;5.2;;;1.5;;
52342;SDS011;38277;51.972;4.624;2023-01-19T10:39:44;5.5;;;2.5;;
52342;SDS011;38277;51.972;4.624;2023-01-19T10:45:14;6.5;;;2.2;;
52342;SDS011;38277;51.972;4.624;2023-01-19T10:48:10;5.7;;;1.6;;
52342;SDS011;38277;51.972;4.624;2023-01-19T10:52:28;7.4;;;1.6;;
52342;SDS011;38277;51.972;4.624;2023-01-19T10:57:27;6.2;;;1.8;;
52342;SDS011;38277;51.972;4.624;2023-01-19T11:02:31;4.9;;;1.6;;
52342;SDS011;38277;51.972;4.624;2023-01-19T11:06:26;6.1;;;1.5;;
52342;SDS011;38277;51.972;4.624;2023-01-19T11:10:43;8.1;;;1.7;;
52342;SDS011;38277;51.972;4.624;2023-01-19T11:15:19;8.7;;;1.9;;
52342;SDS011;38277;51.972;4.624;2023-01-19T11:24:09;4.8;;;1.3;;
52342;SDS011;38277;51.972;4.624;2023-01-19T11:28:35;4.1;;;1.6;;
52342;SDS011;38277;51.972;4.624;2023-01-19T11:33:01;4.2;;;1.6;;
52342;SDS011;38277;51.972;4.624;2023-01-19T11:37:30;6.1;;;1.5;;
52342;SDS011;38277;51.972;4.624;2023-01-19T11:42:21;5.3;;;1.6;;
52342;SDS011;38277;51.972;4.624;2023-01-19T11:46:31;6.3;;;1.4;;
52342;SDS011;38277;51.972;4.624;2023-01-19T11:51:22;6.9;;;1.4;;
52342;SDS011;38277;51.972;4.624;2023-01-19T11:55:41;8.5;;;2.1;;
52342;SDS011;38277;51.972;4.624;2023-01-19T12:00:12;5.4;;;1.4;;
52342;SDS011;38277;51.972;4.624;2023-01-19T12:04:43;4.3;;;1.5;;
52342;SDS011;38277;51.972;4.624;2023-01-19T12:09:19;8.8;;;1.8;;
52342;SDS011;38277;51.972;4.624;2023-01-19T12:13:52;4.5;;;1.6;;
52342;SDS011;38277;51.972;4.624;2023-01-19T12:18:17;7.3;;;2.0;;
52342;SDS011;38277;51.972;4.624;2023-01-19T12:22:45;6.8;;;1.7;;
52342;SDS011;38277;51.972;4.624;2023-01-19T12:27:05;5.0;;;1.6;;
52342;SDS011;38277;51.972;4.624;2023-01-19T12:31:40;5.1;;;1.7;;
52342;SDS011;38277;51.972;4.624;2023-01-19T12:36:05;7.7;;;2.3;;
52342;SDS011;38277;51.972;4.624;2023-01-19T12:49:46;7.4;;;1.8;;
52342;SDS011;38277;51.972;4.624;2023-01-19T12:54:24;6.6;;;1.5;;
52342;SDS011;38277;51.972;4.624;2023-01-19T12:58:46;4.4;;;1.6;;
52342;SDS011;38277;51.972;4.624;2023-01-19T13:03:44;5.6;;;2.0;;
52342;SDS011;38277;51.972;4.624;2023-01-19T13:12:18;5.3;;;1.5;;
52342;SDS011;38277;51.972;4.624;2023-01-19T13:17:21;8.1;;;2.1;;
52342;SDS011;38277;51.972;4.624;2023-01-19T13:25:52;5.6;;;1.4;;
52342;SDS011;38277;51.972;4.624;2023-01-19T13:30:14;4.9;;;1.5;;
52342;SDS011;38277;51.972;4.624;2023-01-19T13:34:25;3.4;;;1.2;;
52342;SDS011;38277;51.972;4.624;2023-01-19T13:39:25;7.5;;;1.6;;
52342;SDS011;38277;51.972;4.624;2023-01-19T13:44:40;6.6;;;1.9;;
52342;SDS011;38277;51.972;4.624;2023-01-19T13:53:21;8.8;;;1.9;;
52342;SDS011;38277;51.972;4.624;2023-01-19T13:57:20;5.8;;;1.5;;
52342;SDS011;38277;51.972;4.624;2023-01-19T14:01:49;5.1;;;1.5;;
52342;SDS011;38277;51.972;4.624;2023-01-19T14:05:57;5.6;;;2.3;;
52342;SDS011;38277;51.972;4.624;2023-01-19T14:15:10;4.8;;;1.7;;
52342;SDS011;38277;51.972;4.624;2023-01-19T14:20:29;10.6;;;2.7;;
52342;SDS011;38277;51.972;4.624;2023-01-19T14:24:07;6.0;;;1.8;;
52342;SDS011;38277;51.972;4.624;2023-01-19T14:28:45;9.6;;;2.1;;
52342;SDS011;38277;51.972;4.624;2023-01-19T14:33:32;6.6;;;1.8;;
52342;SDS011;38277;51.972;4.624;2023-01-19T14:37:47;8.6;;;2.7;;
52342;SDS011;38277;51.972;4.624;2023-01-19T14:42:50;11.4;;;3.3;;
52342;SDS011;38277;51.972;4.624;2023-01-19T14:46:43;5.7;;;2.1;;
52342;SDS011;38277;51.972;4.624;2023-01-19T14:51:23;6.6;;;2.4;;
52342;SDS011;38277;51.972;4.624;2023-01-19T14:55:46;8.6;;;1.9;;
52342;SDS011;38277;51.972;4.624;2023-01-19T15:00:45;3.7;;;1.4;;
52342;SDS011;38277;51.972;4.624;2023-01-19T15:04:43;6.5;;;1.5;;
52342;SDS011;38277;51.972;4.624;2023-01-19T15:09:57;5.4;;;2.0;;
52342;SDS011;38277;51.972;4.624;2023-01-19T15:13:33;7.9;;;2.1;;
52342;SDS011;38277;51.972;4.624;2023-01-19T15:19:07;8.2;;;2.1;;
52342;SDS011;38277;51.972;4.624;2023-01-19T15:22:26;5.0;;;1.7;;
52342;SDS011;38277;51.972;4.624;2023-01-19T15:27:07;4.4;;;1.4;;
52342;SDS011;38277;51.972;4.624;2023-01-19T15:32:30;3.8;;;1.8;;
52342;SDS011;38277;51.972;4.624;2023-01-19T15:36:44;5.0;;;1.9;;
52342;SDS011;38277;51.972;4.624;2023-01-19T15:45:33;4.3;;;1.4;;
52342;SDS011;38277;51.972;4.624;2023-01-19T15:49:50;2.9;;;1.4;;
52342;SDS011;38277;51.972;4.624;2023-01-19T15:53:54;6.1;;;2.0;;
52342;SDS011;38277;51.972;4.624;2023-01-19T15:59:33;4.2;;;1.7;;
52342;SDS011;38277;51.972;4.624;2023-01-19T16:02:56;4.8;;;1.9;;
52342;SDS011;38277;51.972;4.624;2023-01-19T16:07:26;5.4;;;2.0;;
52342;SDS011;38277;51.972;4.624;2023-01-19T16:12:56;8.3;;;4.0;;
52342;SDS011;38277;51.972;4.624;2023-01-19T16:17:19;12.0;;;3.8;;
52342;SDS011;38277;51.972;4.624;2023-01-19T16:21:11;14.2;;;4.8;;
52342;SDS011;38277;51.972;4.624;2023-01-19T16:25:28;14.3;;;4.9;;
52342;SDS011;38277;51.972;4.624;2023-01-19T16:29:54;9.4;;;3.3;;
52342;SDS011;38277;51.972;4.624;2023-01-19T16:35:38;8.7;;;2.9;;
52342;SDS011;38277;51.972;4.624;2023-01-19T16:39:53;8.9;;;3.6;;
52342;SDS011;38277;51.972;4.624;2023-01-19T16:43:42;8.2;;;3.2;;
52342;SDS011;38277;51.972;4.624;2023-01-19T16:47:54;9.5;;;3.2;;
52342;SDS011;38277;51.972;4.624;2023-01-19T16:53:09;8.8;;;3.8;;
52342;SDS011;38277;51.972;4.624;2023-01-19T16:57:10;20.0;;;9.0;;
52342;SDS011;38277;51.972;4.624;2023-01-19T17:01:27;13.8;;;4.5;;
52342;SDS011;38277;51.972;4.624;2023-01-19T17:06:19;5.5;;;2.3;;
52342;SDS011;38277;51.972;4.624;2023-01-19T17:11:31;6.0;;;2.0;;
52342;SDS011;38277;51.972;4.624;2023-01-19T17:15:08;5.2;;;1.9;;
52342;SDS011;38277;51.972;4.624;2023-01-19T17:24:14;7.1;;;1.6;;
52342;SDS011;38277;51.972;4.624;2023-01-19T17:29:35;3.5;;;1.2;;
52342;SDS011;38277;51.972;4.624;2023-01-19T17:33:20;4.4;;;1.4;;
52342;SDS011;38277;51.972;4.624;2023-01-19T17:43:03;2.2;;;1.0;;
52342;SDS011;38277;51.972;4.624;2023-01-19T17:47:19;3.1;;;1.5;;
52342;SDS011;38277;51.972;4.624;2023-01-19T17:51:01;5.7;;;1.6;;
52342;SDS011;38277;51.972;4.624;2023-01-19T17:55:37;2.4;;;1.6;;
52342;SDS011;38277;51.972;4.624;2023-01-19T18:00:19;4.0;;;2.0;;
52342;SDS011;38277;51.972;4.624;2023-01-19T18:05:10;3.5;;;1.6;;
52342;SDS011;38277;51.972;4.624;2023-01-19T18:09:04;3.5;;;1.8;;
52342;SDS011;38277;51.972;4.624;2023-01-19T18:13:35;3.8;;;2.0;;
52342;SDS011;38277;51.972;4.624;2023-01-19T18:17:58;7.2;;;2.7;;
52342;SDS011;38277;51.972;4.624;2023-01-19T18:23:17;3.3;;;1.6;;
52342;SDS011;38277;51.972;4.624;2023-01-19T18:27:16;4.1;;;2.6;;
52342;SDS011;38277;51.972;4.624;2023-01-19T18:32:14;3.3;;;1.5;;
52342;SDS011;38277;51.972;4.624;2023-01-19T18:36:09;2.2;;;1.3;;
52342;SDS011;38277;51.972;4.624;2023-01-19T18:41:32;2.5;;;1.4;;
52342;SDS011;38277;51.972;4.624;2023-01-19T18:50:38;4.5;;;2.4;;
52342;SDS011;38277;51.972;4.624;2023-01-19T18:54:22;4.3;;;1.9;;
52342;SDS011;38277;51.972;4.624;2023-01-19T18:58:38;4.2;;;1.9;;
52342;SDS011;38277;51.972;4.624;2023-01-19T19:03:16;3.5;;;2.0;;
52342;SDS011;38277;51.972;4.624;2023-01-19T19:07:49;4.6;;;1.8;;
52342;SDS011;38277;51.972;4.624;2023-01-19T19:12:07;3.8;;;1.9;;
52342;SDS011;38277;51.972;4.624;2023-01-19T19:16:40;6.4;;;2.3;;
52342;SDS011;38277;51.972;4.624;2023-01-19T19:30:16;9.0;;;4.2;;
52342;SDS011;38277;51.972;4.624;2023-01-19T19:34:36;9.9;;;3.1;;
52342;SDS011;38277;51.972;4.624;2023-01-19T19:48:17;4.3;;;1.9;;
52342;SDS011;38277;51.972;4.624;2023-01-19T19:52:36;4.9;;;2.2;;
52342;SDS011;38277;51.972;4.624;2023-01-19T19:57:21;6.4;;;2.5;;
52342;SDS011;38277;51.972;4.624;2023-01-19T20:06:21;4.9;;;2.2;;
52342;SDS011;38277;51.972;4.624;2023-01-19T20:10:24;4.4;;;2.2;;
52342;SDS011;38277;51.972;4.624;2023-01-19T20:15:21;5.4;;;3.1;;
52342;SDS011;38277;51.972;4.624;2023-01-19T20:24:12;6.7;;;3.2;;
52342;SDS011;38277;51.972;4.624;2023-01-19T20:28:37;7.2;;;3.3;;
52342;SDS011;38277;51.972;4.624;2023-01-19T20:42:07;9.4;;;4.2;;
52342;SDS011;38277;51.972;4.624;2023-01-19T20:46:31;5.3;;;3.4;;
52342;SDS011;38277;51.972;4.624;2023-01-19T20:51:08;7.9;;;5.1;;
52342;SDS011;38277;51.972;4.624;2023-01-19T21:00:21;10.8;;;5.4;;
52342;SDS011;38277;51.972;4.624;2023-01-19T21:04:32;6.5;;;4.0;;
52342;SDS011;38277;51.972;4.624;2023-01-19T21:22:48;9.9;;;4.6;;
52342;SDS011;38277;51.972;4.624;2023-01-19T21:27:05;12.1;;;5.3;;
52342;SDS011;38277;51.972;4.624;2023-01-19T21:54:16;7.7;;;4.0;;
52342;SDS011;38277;51.972;4.624;2023-01-19T22:02:55;9.2;;;4.7;;
52342;SDS011;38277;51.972;4.624;2023-01-19T22:12:17;7.1;;;3.8;;
52342;SDS011;38277;51.972;4.624;2023-01-19T22:16:46;6.8;;;4.0;;
52342;SDS011;38277;51.972;4.624;2023-01-19T22:22:09;10.2;;;3.8;;
52342;SDS011;38277;51.972;4.624;2023-01-19T22:25:50;8.4;;;3.8;;
52342;SDS011;38277;51.972;4.624;2023-01-19T22:31:52;6.7;;;3.7;;
52342;SDS011;38277;51.972;4.624;2023-01-19T22:34:43;6.1;;;3.8;;
52342;SDS011;38277;51.972;4.624;2023-01-19T22:39:14;7.6;;;3.5;;
52342;SDS011;38277;51.972;4.624;2023-01-19T22:43:40;5.9;;;3.4;;
52342;SDS011;38277;51.972;4.624;2023-01-19T22:48:48;6.6;;;3.6;;
52342;SDS011;38277;51.972;4.624;2023-01-19T22:57:18;4.3;;;2.8;;
52342;SDS011;38277;51.972;4.624;2023-01-19T23:01:47;5.1;;;2.6;;
52342;SDS011;38277;51.972;4.624;2023-01-19T23:19:48;7.1;;;3.9;;
52342;SDS011;38277;51.972;4.624;2023-01-19T23:24:48;7.9;;;4.4;;
52342;SDS011;38277;51.972;4.624;2023-01-19T23:30:16;11.4;;;5.6;;
52342;SDS011;38277;51.972;4.624;2023-01-19T23:34:02;15.7;;;8.7;;
52342;SDS011;38277;51.972;4.624;2023-01-19T23:51:20;28.7;;;16.9;;
52342;SDS011;38277;51.972;4.624;2023-01-19T23:56:17;30.3;;;16.1;;
